Ogdensburg, New York
Current Conditions -  °F | °C
As of 5:53 AM on Wednesday 22 Oct 2014 (Local Time) from KMSS Reporting Station
Overcast Overcast  
Wind Chill: 38°   Ceiling: 2200
Heat Index: 45°   Visibility: 10mi
Dew Point: 36°   Wind: 16mph
Humidity: 71%   Direction: 30°NNE
Pressure: 30.2"   Gusts: NA
Location:  44.69°N, 75.49°W
Report Text: KMSS 220953Z AUTO 03014KT 10SM OVC022 07/02 A3020 RMK AO2 SLP229 T00720022
Loading
Personal Weather Stations






























Interactive Weather Map
Tropical Storm Tracking
New forecast layout! Learn more

10-Day Weather Forecast

Advertisements
Track Severe Weather on mobile